sensor_id;sensor_type;location;lat;lon;timestamp;temperature;humidity
23633;DHT22;11993;48.748;9.166;2023-05-10T00:01:56;13.70;88.30
23633;DHT22;11993;48.748;9.166;2023-05-10T00:04:22;13.80;88.40
23633;DHT22;11993;48.748;9.166;2023-05-10T00:06:47;13.80;87.90
23633;DHT22;11993;48.748;9.166;2023-05-10T00:09:13;13.90;88.20
23633;DHT22;11993;48.748;9.166;2023-05-10T00:11:39;14.00;88.20
23633;DHT22;11993;48.748;9.166;2023-05-10T00:14:04;14.10;88.10
23633;DHT22;11993;48.748;9.166;2023-05-10T00:16:30;14.10;88.00
23633;DHT22;11993;48.748;9.166;2023-05-10T00:18:55;14.00;87.90
23633;DHT22;11993;48.748;9.166;2023-05-10T00:21:21;14.00;87.40
23633;DHT22;11993;48.748;9.166;2023-05-10T00:23:48;14.00;87.40
23633;DHT22;11993;48.748;9.166;2023-05-10T00:26:13;13.90;87.70
23633;DHT22;11993;48.748;9.166;2023-05-10T00:28:39;13.80;88.10
23633;DHT22;11993;48.748;9.166;2023-05-10T00:31:04;13.70;87.80
23633;DHT22;11993;48.748;9.166;2023-05-10T00:33:30;13.80;87.50
23633;DHT22;11993;48.748;9.166;2023-05-10T00:35:56;13.80;86.60
23633;DHT22;11993;48.748;9.166;2023-05-10T00:38:21;13.60;87.00
23633;DHT22;11993;48.748;9.166;2023-05-10T00:40:47;13.50;86.50
23633;DHT22;11993;48.748;9.166;2023-05-10T00:43:12;13.50;86.00
23633;DHT22;11993;48.748;9.166;2023-05-10T00:45:39;13.50;86.70
23633;DHT22;11993;48.748;9.166;2023-05-10T00:48:05;13.50;86.90
23633;DHT22;11993;48.748;9.166;2023-05-10T00:50:32;13.40;86.30
23633;DHT22;11993;48.748;9.166;2023-05-10T00:52:59;13.40;86.40
23633;DHT22;11993;48.748;9.166;2023-05-10T00:55:25;13.50;86.20
23633;DHT22;11993;48.748;9.166;2023-05-10T00:57:52;13.30;86.40
23633;DHT22;11993;48.748;9.166;2023-05-10T01:00:17;13.40;86.40
23633;DHT22;11993;48.748;9.166;2023-05-10T01:02:47;13.30;86.40
23633;DHT22;11993;48.748;9.166;2023-05-10T01:05:13;13.20;86.50
23633;DHT22;11993;48.748;9.166;2023-05-10T01:07:39;13.30;86.60
23633;DHT22;11993;48.748;9.166;2023-05-10T01:10:08;13.20;86.70
23633;DHT22;11993;48.748;9.166;2023-05-10T01:12:37;13.30;86.50
23633;DHT22;11993;48.748;9.166;2023-05-10T01:15:05;13.20;86.80
23633;DHT22;11993;48.748;9.166;2023-05-10T01:17:31;13.20;86.70
23633;DHT22;11993;48.748;9.166;2023-05-10T01:19:57;13.20;86.20
23633;DHT22;11993;48.748;9.166;2023-05-10T01:22:50;13.10;87.30
23633;DHT22;11993;48.748;9.166;2023-05-10T01:33:41;13.10;86.90
23633;DHT22;11993;48.748;9.166;2023-05-10T01:39:32;13.00;86.70
23633;DHT22;11993;48.748;9.166;2023-05-10T01:42:01;13.00;87.20
23633;DHT22;11993;48.748;9.166;2023-05-10T01:44:55;13.10;87.20
23633;DHT22;11993;48.748;9.166;2023-05-10T01:47:42;13.10;86.90
23633;DHT22;11993;48.748;9.166;2023-05-10T01:50:15;13.10;87.20
23633;DHT22;11993;48.748;9.166;2023-05-10T01:52:50;13.10;86.90
23633;DHT22;11993;48.748;9.166;2023-05-10T01:55:18;13.30;86.70
23633;DHT22;11993;48.748;9.166;2023-05-10T01:57:44;13.20;86.20
23633;DHT22;11993;48.748;9.166;2023-05-10T02:00:12;13.30;85.90
23633;DHT22;11993;48.748;9.166;2023-05-10T02:02:41;13.20;85.90
23633;DHT22;11993;48.748;9.166;2023-05-10T02:05:08;13.20;86.10
23633;DHT22;11993;48.748;9.166;2023-05-10T02:07:36;13.20;86.20
23633;DHT22;11993;48.748;9.166;2023-05-10T02:10:06;13.30;86.10
23633;DHT22;11993;48.748;9.166;2023-05-10T02:12:35;13.30;85.90
23633;DHT22;11993;48.748;9.166;2023-05-10T02:15:03;13.30;85.90
23633;DHT22;11993;48.748;9.166;2023-05-10T02:17:32;13.10;85.80
23633;DHT22;11993;48.748;9.166;2023-05-10T02:19:59;13.20;85.60
23633;DHT22;11993;48.748;9.166;2023-05-10T02:22:27;13.10;85.30
23633;DHT22;11993;48.748;9.166;2023-05-10T02:24:54;13.30;85.60
23633;DHT22;11993;48.748;9.166;2023-05-10T02:27:22;13.10;85.40
23633;DHT22;11993;48.748;9.166;2023-05-10T02:29:50;13.10;85.80
23633;DHT22;11993;48.748;9.166;2023-05-10T02:32:16;12.90;85.90
23633;DHT22;11993;48.748;9.166;2023-05-10T02:34:43;13.10;85.70
23633;DHT22;11993;48.748;9.166;2023-05-10T02:37:14;13.10;85.70
23633;DHT22;11993;48.748;9.166;2023-05-10T02:39:41;13.10;86.20
23633;DHT22;11993;48.748;9.166;2023-05-10T02:42:14;13.00;85.90
23633;DHT22;11993;48.748;9.166;2023-05-10T02:44:41;13.10;85.70
23633;DHT22;11993;48.748;9.166;2023-05-10T02:47:07;13.00;85.80
23633;DHT22;11993;48.748;9.166;2023-05-10T02:49:33;13.00;86.10
23633;DHT22;11993;48.748;9.166;2023-05-10T02:52:01;13.10;85.70
23633;DHT22;11993;48.748;9.166;2023-05-10T02:54:32;13.10;85.60
23633;DHT22;11993;48.748;9.166;2023-05-10T02:57:00;13.10;85.40
23633;DHT22;11993;48.748;9.166;2023-05-10T02:59:29;13.10;85.40
23633;DHT22;11993;48.748;9.166;2023-05-10T03:01:54;13.10;85.30
23633;DHT22;11993;48.748;9.166;2023-05-10T03:04:20;13.10;85.60
23633;DHT22;11993;48.748;9.166;2023-05-10T03:06:45;12.90;85.70
23633;DHT22;11993;48.748;9.166;2023-05-10T03:09:12;13.00;85.70
23633;DHT22;11993;48.748;9.166;2023-05-10T03:11:55;13.00;85.80
23633;DHT22;11993;48.748;9.166;2023-05-10T03:17:19;13.10;85.60
23633;DHT22;11993;48.748;9.166;2023-05-10T03:19:58;13.10;85.20
23633;DHT22;11993;48.748;9.166;2023-05-10T03:22:38;13.10;85.10
23633;DHT22;11993;48.748;9.166;2023-05-10T03:25:06;13.00;85.40
23633;DHT22;11993;48.748;9.166;2023-05-10T03:27:35;12.90;85.50
23633;DHT22;11993;48.748;9.166;2023-05-10T03:30:02;12.90;85.40
23633;DHT22;11993;48.748;9.166;2023-05-10T03:32:29;13.00;85.80
23633;DHT22;11993;48.748;9.166;2023-05-10T03:34:57;13.00;85.40
23633;DHT22;11993;48.748;9.166;2023-05-10T03:37:22;12.80;85.30
23633;DHT22;11993;48.748;9.166;2023-05-10T03:39:48;12.90;85.90
23633;DHT22;11993;48.748;9.166;2023-05-10T03:42:13;12.70;86.00
23633;DHT22;11993;48.748;9.166;2023-05-10T03:44:39;12.80;86.10
23633;DHT22;11993;48.748;9.166;2023-05-10T03:47:05;12.70;86.00
23633;DHT22;11993;48.748;9.166;2023-05-10T03:49:30;12.60;86.10
23633;DHT22;11993;48.748;9.166;2023-05-10T03:51:56;12.60;86.50
23633;DHT22;11993;48.748;9.166;2023-05-10T03:54:21;12.60;86.80
23633;DHT22;11993;48.748;9.166;2023-05-10T03:56:47;12.70;86.70
23633;DHT22;11993;48.748;9.166;2023-05-10T03:59:13;12.70;86.60
23633;DHT22;11993;48.748;9.166;2023-05-10T04:01:39;12.70;86.50
23633;DHT22;11993;48.748;9.166;2023-05-10T04:04:04;12.80;86.80
23633;DHT22;11993;48.748;9.166;2023-05-10T04:06:30;12.80;86.60
23633;DHT22;11993;48.748;9.166;2023-05-10T04:08:56;12.60;86.90
23633;DHT22;11993;48.748;9.166;2023-05-10T04:11:25;12.50;87.40
23633;DHT22;11993;48.748;9.166;2023-05-10T04:13:50;12.30;87.80
23633;DHT22;11993;48.748;9.166;2023-05-10T04:16:16;12.40;87.50
23633;DHT22;11993;48.748;9.166;2023-05-10T04:18:41;12.40;87.50
23633;DHT22;11993;48.748;9.166;2023-05-10T04:21:13;12.50;87.60
23633;DHT22;11993;48.748;9.166;2023-05-10T04:23:39;12.60;87.60
23633;DHT22;11993;48.748;9.166;2023-05-10T04:26:05;12.40;87.20
23633;DHT22;11993;48.748;9.166;2023-05-10T04:28:30;12.40;87.30
23633;DHT22;11993;48.748;9.166;2023-05-10T04:31:08;12.40;87.30
23633;DHT22;11993;48.748;9.166;2023-05-10T04:33:34;12.60;87.30
23633;DHT22;11993;48.748;9.166;2023-05-10T04:36:01;12.60;87.10
23633;DHT22;11993;48.748;9.166;2023-05-10T04:38:27;12.50;87.10
23633;DHT22;11993;48.748;9.166;2023-05-10T04:40:53;12.60;87.30
23633;DHT22;11993;48.748;9.166;2023-05-10T04:43:19;12.60;87.20
23633;DHT22;11993;48.748;9.166;2023-05-10T04:45:44;12.60;86.80
23633;DHT22;11993;48.748;9.166;2023-05-10T04:48:10;12.60;87.00
23633;DHT22;11993;48.748;9.166;2023-05-10T04:50:36;12.50;87.20
23633;DHT22;11993;48.748;9.166;2023-05-10T04:53:02;12.70;87.00
23633;DHT22;11993;48.748;9.166;2023-05-10T04:55:27;12.70;87.00
23633;DHT22;11993;48.748;9.166;2023-05-10T04:57:53;12.80;86.70
23633;DHT22;11993;48.748;9.166;2023-05-10T05:00:20;12.80;86.60
23633;DHT22;11993;48.748;9.166;2023-05-10T05:02:46;12.90;86.50
23633;DHT22;11993;48.748;9.166;2023-05-10T05:05:12;12.90;86.50
23633;DHT22;11993;48.748;9.166;2023-05-10T05:07:38;13.10;85.80
23633;DHT22;11993;48.748;9.166;2023-05-10T05:10:05;13.10;85.60
23633;DHT22;11993;48.748;9.166;2023-05-10T05:12:31;13.10;85.80
23633;DHT22;11993;48.748;9.166;2023-05-10T05:14:57;12.90;86.10
23633;DHT22;11993;48.748;9.166;2023-05-10T05:17:22;12.90;86.10
23633;DHT22;11993;48.748;9.166;2023-05-10T05:19:48;13.00;85.60
23633;DHT22;11993;48.748;9.166;2023-05-10T05:22:13;13.10;85.90
23633;DHT22;11993;48.748;9.166;2023-05-10T05:24:39;13.10;85.80
23633;DHT22;11993;48.748;9.166;2023-05-10T05:27:05;12.90;86.20
23633;DHT22;11993;48.748;9.166;2023-05-10T05:29:31;13.10;85.90
23633;DHT22;11993;48.748;9.166;2023-05-10T05:31:56;13.00;85.90
23633;DHT22;11993;48.748;9.166;2023-05-10T05:34:22;13.10;85.80
23633;DHT22;11993;48.748;9.166;2023-05-10T05:36:48;13.20;85.70
23633;DHT22;11993;48.748;9.166;2023-05-10T05:39:13;13.30;85.60
23633;DHT22;11993;48.748;9.166;2023-05-10T05:41:39;13.50;85.40
23633;DHT22;11993;48.748;9.166;2023-05-10T05:44:05;13.50;85.10
23633;DHT22;11993;48.748;9.166;2023-05-10T05:46:30;13.50;84.80
23633;DHT22;11993;48.748;9.166;2023-05-10T05:48:56;13.50;84.30
23633;DHT22;11993;48.748;9.166;2023-05-10T05:51:22;13.30;85.00
23633;DHT22;11993;48.748;9.166;2023-05-10T05:53:47;13.50;84.70
23633;DHT22;11993;48.748;9.166;2023-05-10T05:56:13;13.30;85.20
23633;DHT22;11993;48.748;9.166;2023-05-10T05:58:38;13.20;86.40
23633;DHT22;11993;48.748;9.166;2023-05-10T06:01:04;13.20;85.90
23633;DHT22;11993;48.748;9.166;2023-05-10T06:03:29;13.40;85.90
23633;DHT22;11993;48.748;9.166;2023-05-10T06:05:55;13.50;85.20
23633;DHT22;11993;48.748;9.166;2023-05-10T06:08:20;13.60;85.30
23633;DHT22;11993;48.748;9.166;2023-05-10T06:10:46;13.60;85.00
23633;DHT22;11993;48.748;9.166;2023-05-10T06:13:12;13.70;84.60
23633;DHT22;11993;48.748;9.166;2023-05-10T06:15:38;13.90;84.00
23633;DHT22;11993;48.748;9.166;2023-05-10T06:18:03;13.80;84.00
23633;DHT22;11993;48.748;9.166;2023-05-10T06:20:29;13.80;84.30
23633;DHT22;11993;48.748;9.166;2023-05-10T06:22:57;13.90;84.30
23633;DHT22;11993;48.748;9.166;2023-05-10T06:25:22;13.70;84.10
23633;DHT22;11993;48.748;9.166;2023-05-10T06:27:48;13.70;84.20
23633;DHT22;11993;48.748;9.166;2023-05-10T06:30:14;13.80;84.70
23633;DHT22;11993;48.748;9.166;2023-05-10T06:32:40;13.80;84.80
23633;DHT22;11993;48.748;9.166;2023-05-10T06:35:06;13.70;84.70
23633;DHT22;11993;48.748;9.166;2023-05-10T06:37:33;13.90;84.50
23633;DHT22;11993;48.748;9.166;2023-05-10T06:39:59;13.40;85.40
23633;DHT22;11993;48.748;9.166;2023-05-10T06:42:25;13.60;85.30
23633;DHT22;11993;48.748;9.166;2023-05-10T06:44:51;13.60;85.20
23633;DHT22;11993;48.748;9.166;2023-05-10T06:47:16;13.60;85.20
23633;DHT22;11993;48.748;9.166;2023-05-10T06:49:42;13.50;85.40
23633;DHT22;11993;48.748;9.166;2023-05-10T06:52:08;13.60;85.60
23633;DHT22;11993;48.748;9.166;2023-05-10T06:54:33;13.60;85.60
23633;DHT22;11993;48.748;9.166;2023-05-10T06:56:59;13.40;85.10
23633;DHT22;11993;48.748;9.166;2023-05-10T06:59:24;13.10;85.90
23633;DHT22;11993;48.748;9.166;2023-05-10T07:01:50;13.40;85.60
23633;DHT22;11993;48.748;9.166;2023-05-10T07:04:15;13.50;85.60
23633;DHT22;11993;48.748;9.166;2023-05-10T07:06:42;13.60;84.70
23633;DHT22;11993;48.748;9.166;2023-05-10T07:09:08;13.80;84.50
23633;DHT22;11993;48.748;9.166;2023-05-10T07:11:34;13.60;84.10
23633;DHT22;11993;48.748;9.166;2023-05-10T07:13:59;13.50;84.90
23633;DHT22;11993;48.748;9.166;2023-05-10T07:16:25;13.50;85.00
23633;DHT22;11993;48.748;9.166;2023-05-10T07:18:51;13.50;84.80
23633;DHT22;11993;48.748;9.166;2023-05-10T07:21:18;13.60;84.20
23633;DHT22;11993;48.748;9.166;2023-05-10T07:23:43;13.80;84.30
23633;DHT22;11993;48.748;9.166;2023-05-10T07:26:09;13.70;84.50
23633;DHT22;11993;48.748;9.166;2023-05-10T07:28:34;13.70;84.70
23633;DHT22;11993;48.748;9.166;2023-05-10T07:31:02;13.80;84.60
23633;DHT22;11993;48.748;9.166;2023-05-10T07:33:28;13.90;84.20
23633;DHT22;11993;48.748;9.166;2023-05-10T07:35:53;14.00;83.50
23633;DHT22;11993;48.748;9.166;2023-05-10T07:38:19;14.10;82.80
23633;DHT22;11993;48.748;9.166;2023-05-10T07:40:44;14.10;81.70
23633;DHT22;11993;48.748;9.166;2023-05-10T07:43:10;13.90;83.00
23633;DHT22;11993;48.748;9.166;2023-05-10T07:45:35;14.00;83.00
23633;DHT22;11993;48.748;9.166;2023-05-10T07:48:01;14.00;82.20
23633;DHT22;11993;48.748;9.166;2023-05-10T07:50:27;14.10;80.90
23633;DHT22;11993;48.748;9.166;2023-05-10T07:52:52;14.10;81.80
23633;DHT22;11993;48.748;9.166;2023-05-10T07:55:18;14.00;82.40
23633;DHT22;11993;48.748;9.166;2023-05-10T07:57:45;14.20;81.60
23633;DHT22;11993;48.748;9.166;2023-05-10T08:00:12;14.30;82.00
23633;DHT22;11993;48.748;9.166;2023-05-10T08:02:38;14.20;81.00
23633;DHT22;11993;48.748;9.166;2023-05-10T08:05:04;14.20;80.70
23633;DHT22;11993;48.748;9.166;2023-05-10T08:07:30;14.40;79.20
23633;DHT22;11993;48.748;9.166;2023-05-10T08:09:56;14.40;78.30
23633;DHT22;11993;48.748;9.166;2023-05-10T08:12:21;14.60;77.40
23633;DHT22;11993;48.748;9.166;2023-05-10T08:14:47;14.80;78.40
23633;DHT22;11993;48.748;9.166;2023-05-10T08:17:12;14.90;77.10
23633;DHT22;11993;48.748;9.166;2023-05-10T08:19:38;14.90;76.70
23633;DHT22;11993;48.748;9.166;2023-05-10T08:22:03;14.90;77.00
23633;DHT22;11993;48.748;9.166;2023-05-10T08:24:29;15.10;77.40
23633;DHT22;11993;48.748;9.166;2023-05-10T08:26:55;14.60;77.60
23633;DHT22;11993;48.748;9.166;2023-05-10T08:29:20;15.00;78.80
23633;DHT22;11993;48.748;9.166;2023-05-10T08:31:46;15.00;79.20
23633;DHT22;11993;48.748;9.166;2023-05-10T08:34:11;15.00;76.30
23633;DHT22;11993;48.748;9.166;2023-05-10T08:36:37;15.10;74.80
23633;DHT22;11993;48.748;9.166;2023-05-10T08:39:02;15.10;77.10
23633;DHT22;11993;48.748;9.166;2023-05-10T08:41:28;15.30;75.50
23633;DHT22;11993;48.748;9.166;2023-05-10T08:43:55;15.50;76.90
23633;DHT22;11993;48.748;9.166;2023-05-10T08:46:22;15.10;74.30
23633;DHT22;11993;48.748;9.166;2023-05-10T08:48:49;15.30;76.30
23633;DHT22;11993;48.748;9.166;2023-05-10T08:51:18;15.40;77.40
23633;DHT22;11993;48.748;9.166;2023-05-10T08:53:45;15.40;74.70
23633;DHT22;11993;48.748;9.166;2023-05-10T08:56:11;15.40;73.60
23633;DHT22;11993;48.748;9.166;2023-05-10T08:58:37;15.50;73.60
23633;DHT22;11993;48.748;9.166;2023-05-10T09:01:03;15.30;74.50
23633;DHT22;11993;48.748;9.166;2023-05-10T09:03:30;15.30;75.90
23633;DHT22;11993;48.748;9.166;2023-05-10T09:05:56;15.40;76.50
23633;DHT22;11993;48.748;9.166;2023-05-10T09:08:23;15.60;76.00
23633;DHT22;11993;48.748;9.166;2023-05-10T09:10:53;15.60;75.60
23633;DHT22;11993;48.748;9.166;2023-05-10T09:13:21;15.70;77.00
23633;DHT22;11993;48.748;9.166;2023-05-10T09:15:48;15.90;76.40
23633;DHT22;11993;48.748;9.166;2023-05-10T09:18:14;15.70;73.90
23633;DHT22;11993;48.748;9.166;2023-05-10T09:20:40;15.70;73.30
23633;DHT22;11993;48.748;9.166;2023-05-10T09:23:05;15.60;74.40
23633;DHT22;11993;48.748;9.166;2023-05-10T09:25:32;15.60;75.00
23633;DHT22;11993;48.748;9.166;2023-05-10T09:27:59;15.40;75.90
23633;DHT22;11993;48.748;9.166;2023-05-10T09:30:26;15.10;77.20
23633;DHT22;11993;48.748;9.166;2023-05-10T09:32:53;15.10;77.50
23633;DHT22;11993;48.748;9.166;2023-05-10T09:35:20;15.10;78.10
23633;DHT22;11993;48.748;9.166;2023-05-10T09:37:48;15.20;77.30
23633;DHT22;11993;48.748;9.166;2023-05-10T09:40:18;15.30;77.00
23633;DHT22;11993;48.748;9.166;2023-05-10T09:43:00;15.50;76.40
23633;DHT22;11993;48.748;9.166;2023-05-10T09:45:31;15.50;76.80
23633;DHT22;11993;48.748;9.166;2023-05-10T09:47:57;15.80;76.80
23633;DHT22;11993;48.748;9.166;2023-05-10T09:50:24;15.80;75.90
23633;DHT22;11993;48.748;9.166;2023-05-10T09:52:58;15.90;75.70
23633;DHT22;11993;48.748;9.166;2023-05-10T09:58:01;16.10;73.00
23633;DHT22;11993;48.748;9.166;2023-05-10T10:00:27;16.30;70.50
23633;DHT22;11993;48.748;9.166;2023-05-10T10:02:58;16.60;72.30
23633;DHT22;11993;48.748;9.166;2023-05-10T10:05:35;16.70;70.10
23633;DHT22;11993;48.748;9.166;2023-05-10T10:08:05;16.70;68.90
23633;DHT22;11993;48.748;9.166;2023-05-10T10:10:33;16.90;67.80
23633;DHT22;11993;48.748;9.166;2023-05-10T10:12:59;17.10;68.40
23633;DHT22;11993;48.748;9.166;2023-05-10T10:15:25;17.10;69.00
23633;DHT22;11993;48.748;9.166;2023-05-10T10:17:52;17.00;67.90
23633;DHT22;11993;48.748;9.166;2023-05-10T10:20:18;16.70;67.70
23633;DHT22;11993;48.748;9.166;2023-05-10T10:22:45;16.90;64.30
23633;DHT22;11993;48.748;9.166;2023-05-10T10:25:13;16.70;67.00
23633;DHT22;11993;48.748;9.166;2023-05-10T10:28:11;16.60;68.00
23633;DHT22;11993;48.748;9.166;2023-05-10T10:30:47;16.60;67.10
23633;DHT22;11993;48.748;9.166;2023-05-10T10:36:08;16.70;67.20
23633;DHT22;11993;48.748;9.166;2023-05-10T10:41:32;16.80;66.10
23633;DHT22;11993;48.748;9.166;2023-05-10T10:52:35;17.30;65.10
23633;DHT22;11993;48.748;9.166;2023-05-10T10:55:16;17.20;65.70
23633;DHT22;11993;48.748;9.166;2023-05-10T11:00:35;17.00;65.70
23633;DHT22;11993;48.748;9.166;2023-05-10T11:03:10;16.30;67.00
23633;DHT22;11993;48.748;9.166;2023-05-10T11:05:39;15.90;66.80
23633;DHT22;11993;48.748;9.166;2023-05-10T11:08:29;15.60;67.40
23633;DHT22;11993;48.748;9.166;2023-05-10T11:13:45;15.10;66.60
23633;DHT22;11993;48.748;9.166;2023-05-10T11:16:43;15.30;67.20
23633;DHT22;11993;48.748;9.166;2023-05-10T11:19:11;15.40;66.80
23633;DHT22;11993;48.748;9.166;2023-05-10T11:22:11;15.40;67.10
23633;DHT22;11993;48.748;9.166;2023-05-10T11:24:38;15.40;65.30
23633;DHT22;11993;48.748;9.166;2023-05-10T11:27:04;15.60;64.50
23633;DHT22;11993;48.748;9.166;2023-05-10T11:29:29;15.30;64.80
23633;DHT22;11993;48.748;9.166;2023-05-10T11:31:58;15.40;67.20
23633;DHT22;11993;48.748;9.166;2023-05-10T11:34:30;15.60;64.40
23633;DHT22;11993;48.748;9.166;2023-05-10T11:36:59;15.40;64.20
23633;DHT22;11993;48.748;9.166;2023-05-10T11:39:27;15.60;63.50
23633;DHT22;11993;48.748;9.166;2023-05-10T11:41:53;15.50;64.40
23633;DHT22;11993;48.748;9.166;2023-05-10T11:44:19;15.40;65.10
23633;DHT22;11993;48.748;9.166;2023-05-10T11:46:44;15.20;64.90
23633;DHT22;11993;48.748;9.166;2023-05-10T11:49:10;15.20;65.70
23633;DHT22;11993;48.748;9.166;2023-05-10T11:51:36;15.10;67.10
23633;DHT22;11993;48.748;9.166;2023-05-10T11:54:07;14.90;66.20
23633;DHT22;11993;48.748;9.166;2023-05-10T11:56:37;14.80;67.70
23633;DHT22;11993;48.748;9.166;2023-05-10T11:59:03;15.00;66.80
23633;DHT22;11993;48.748;9.166;2023-05-10T12:01:29;15.00;67.60
23633;DHT22;11993;48.748;9.166;2023-05-10T12:03:57;14.70;69.90
23633;DHT22;11993;48.748;9.166;2023-05-10T12:06:31;15.10;68.80
23633;DHT22;11993;48.748;9.166;2023-05-10T12:08:57;15.30;67.50
23633;DHT22;11993;48.748;9.166;2023-05-10T12:11:28;15.30;65.90
23633;DHT22;11993;48.748;9.166;2023-05-10T12:13:54;15.70;65.70
23633;DHT22;11993;48.748;9.166;2023-05-10T12:16:25;15.80;65.10
23633;DHT22;11993;48.748;9.166;2023-05-10T12:18:52;15.90;65.30
23633;DHT22;11993;48.748;9.166;2023-05-10T12:21:20;15.90;64.00
23633;DHT22;11993;48.748;9.166;2023-05-10T12:23:48;15.60;65.20
23633;DHT22;11993;48.748;9.166;2023-05-10T12:26:15;15.90;63.90
23633;DHT22;11993;48.748;9.166;2023-05-10T12:28:40;15.80;63.60
23633;DHT22;11993;48.748;9.166;2023-05-10T12:31:06;16.10;63.60
23633;DHT22;11993;48.748;9.166;2023-05-10T12:33:50;16.20;63.70
23633;DHT22;11993;48.748;9.166;2023-05-10T12:36:16;16.30;63.70
23633;DHT22;11993;48.748;9.166;2023-05-10T12:38:48;16.10;64.30
23633;DHT22;11993;48.748;9.166;2023-05-10T12:41:15;16.00;65.10
23633;DHT22;11993;48.748;9.166;2023-05-10T12:43:41;16.00;65.70
23633;DHT22;11993;48.748;9.166;2023-05-10T12:46:11;16.10;64.50
23633;DHT22;11993;48.748;9.166;2023-05-10T12:48:38;16.00;63.40
23633;DHT22;11993;48.748;9.166;2023-05-10T12:51:05;15.80;65.40
23633;DHT22;11993;48.748;9.166;2023-05-10T12:53:33;15.90;65.20
23633;DHT22;11993;48.748;9.166;2023-05-10T12:55:59;15.50;65.90
23633;DHT22;11993;48.748;9.166;2023-05-10T12:58:25;15.50;66.20
23633;DHT22;11993;48.748;9.166;2023-05-10T13:00:50;15.50;65.50
23633;DHT22;11993;48.748;9.166;2023-05-10T13:03:17;15.50;64.30
23633;DHT22;11993;48.748;9.166;2023-05-10T13:05:42;15.60;63.80
23633;DHT22;11993;48.748;9.166;2023-05-10T13:08:08;15.40;65.70
23633;DHT22;11993;48.748;9.166;2023-05-10T13:10:34;15.40;65.60
23633;DHT22;11993;48.748;9.166;2023-05-10T13:12:59;15.50;65.40
23633;DHT22;11993;48.748;9.166;2023-05-10T13:15:25;15.60;66.40
23633;DHT22;11993;48.748;9.166;2023-05-10T13:17:52;15.90;65.20
23633;DHT22;11993;48.748;9.166;2023-05-10T13:20:18;16.10;63.80
23633;DHT22;11993;48.748;9.166;2023-05-10T13:22:44;16.40;62.70
23633;DHT22;11993;48.748;9.166;2023-05-10T13:25:10;16.50;62.10
23633;DHT22;11993;48.748;9.166;2023-05-10T13:27:36;16.70;61.70
23633;DHT22;11993;48.748;9.166;2023-05-10T13:30:03;16.80;62.30
23633;DHT22;11993;48.748;9.166;2023-05-10T13:32:29;16.90;61.40
23633;DHT22;11993;48.748;9.166;2023-05-10T13:34:55;16.80;60.80
23633;DHT22;11993;48.748;9.166;2023-05-10T13:37:21;16.80;61.10
23633;DHT22;11993;48.748;9.166;2023-05-10T13:39:47;16.80;60.30
23633;DHT22;11993;48.748;9.166;2023-05-10T13:42:13;16.90;61.10
23633;DHT22;11993;48.748;9.166;2023-05-10T13:44:39;16.80;60.00
23633;DHT22;11993;48.748;9.166;2023-05-10T13:47:05;16.60;59.80
23633;DHT22;11993;48.748;9.166;2023-05-10T13:49:30;16.70;60.00
23633;DHT22;11993;48.748;9.166;2023-05-10T13:51:56;16.70;59.40
23633;DHT22;11993;48.748;9.166;2023-05-10T13:54:22;16.90;60.00
23633;DHT22;11993;48.748;9.166;2023-05-10T13:56:48;16.80;60.60
23633;DHT22;11993;48.748;9.166;2023-05-10T13:59:14;17.10;60.60
23633;DHT22;11993;48.748;9.166;2023-05-10T14:01:40;17.10;58.20
23633;DHT22;11993;48.748;9.166;2023-05-10T14:04:06;17.10;58.80
23633;DHT22;11993;48.748;9.166;2023-05-10T14:06:38;16.90;60.00
23633;DHT22;11993;48.748;9.166;2023-05-10T14:09:03;17.00;60.20
23633;DHT22;11993;48.748;9.166;2023-05-10T14:11:29;17.10;59.40
23633;DHT22;11993;48.748;9.166;2023-05-10T14:13:55;17.10;58.70
23633;DHT22;11993;48.748;9.166;2023-05-10T14:16:21;17.30;59.20
23633;DHT22;11993;48.748;9.166;2023-05-10T14:18:46;17.10;58.70
23633;DHT22;11993;48.748;9.166;2023-05-10T14:21:12;17.00;58.50
23633;DHT22;11993;48.748;9.166;2023-05-10T14:23:38;16.70;58.60
23633;DHT22;11993;48.748;9.166;2023-05-10T14:26:03;16.70;58.70
23633;DHT22;11993;48.748;9.166;2023-05-10T14:28:29;16.70;59.80
23633;DHT22;11993;48.748;9.166;2023-05-10T14:30:55;16.70;58.70
23633;DHT22;11993;48.748;9.166;2023-05-10T14:33:20;16.70;56.30
23633;DHT22;11993;48.748;9.166;2023-05-10T14:35:46;17.10;55.40
23633;DHT22;11993;48.748;9.166;2023-05-10T14:38:13;16.70;57.20
23633;DHT22;11993;48.748;9.166;2023-05-10T14:40:38;16.90;57.50
23633;DHT22;11993;48.748;9.166;2023-05-10T14:43:04;17.00;57.00
23633;DHT22;11993;48.748;9.166;2023-05-10T14:45:30;16.90;58.00
23633;DHT22;11993;48.748;9.166;2023-05-10T14:47:56;17.00;57.70
23633;DHT22;11993;48.748;9.166;2023-05-10T14:50:22;16.90;57.60
23633;DHT22;11993;48.748;9.166;2023-05-10T14:52:48;16.70;58.90
23633;DHT22;11993;48.748;9.166;2023-05-10T14:55:14;16.80;57.60
23633;DHT22;11993;48.748;9.166;2023-05-10T14:57:40;16.80;57.30
23633;DHT22;11993;48.748;9.166;2023-05-10T15:00:06;17.00;57.00
23633;DHT22;11993;48.748;9.166;2023-05-10T15:02:32;16.90;57.20
23633;DHT22;11993;48.748;9.166;2023-05-10T15:04:57;17.00;56.60
23633;DHT22;11993;48.748;9.166;2023-05-10T15:07:23;17.10;55.40
23633;DHT22;11993;48.748;9.166;2023-05-10T15:09:50;17.10;55.40
23633;DHT22;11993;48.748;9.166;2023-05-10T15:12:17;17.10;56.10
23633;DHT22;11993;48.748;9.166;2023-05-10T15:14:43;17.10;55.80
23633;DHT22;11993;48.748;9.166;2023-05-10T15:17:08;16.90;57.20
23633;DHT22;11993;48.748;9.166;2023-05-10T15:19:34;17.00;55.40
23633;DHT22;11993;48.748;9.166;2023-05-10T15:21:59;16.90;56.30
23633;DHT22;11993;48.748;9.166;2023-05-10T15:24:25;16.90;57.30
23633;DHT22;11993;48.748;9.166;2023-05-10T15:26:50;17.00;56.20
23633;DHT22;11993;48.748;9.166;2023-05-10T15:29:16;16.70;57.30
23633;DHT22;11993;48.748;9.166;2023-05-10T15:31:48;16.80;58.40
23633;DHT22;11993;48.748;9.166;2023-05-10T15:34:14;16.90;56.50
23633;DHT22;11993;48.748;9.166;2023-05-10T15:36:40;16.80;56.60
23633;DHT22;11993;48.748;9.166;2023-05-10T15:39:06;16.90;57.40
23633;DHT22;11993;48.748;9.166;2023-05-10T15:41:32;17.10;56.20
23633;DHT22;11993;48.748;9.166;2023-05-10T15:43:58;17.20;55.80
23633;DHT22;11993;48.748;9.166;2023-05-10T15:46:28;17.10;57.00
23633;DHT22;11993;48.748;9.166;2023-05-10T15:48:53;17.10;55.50
23633;DHT22;11993;48.748;9.166;2023-05-10T15:51:19;16.90;56.10
23633;DHT22;11993;48.748;9.166;2023-05-10T15:53:45;17.00;56.80
23633;DHT22;11993;48.748;9.166;2023-05-10T15:56:11;16.90;57.00
23633;DHT22;11993;48.748;9.166;2023-05-10T15:58:40;16.80;58.40
23633;DHT22;11993;48.748;9.166;2023-05-10T16:01:06;16.90;57.00
23633;DHT22;11993;48.748;9.166;2023-05-10T16:03:33;16.70;57.30
23633;DHT22;11993;48.748;9.166;2023-05-10T16:06:00;16.50;57.00
23633;DHT22;11993;48.748;9.166;2023-05-10T16:08:27;16.70;56.60